Time;durP1;ratioP1;P1;durP2;ratioP2;P2;SDS_P1;SDS_P2;PMS_P1;PMS_P2;Temp;Humidity;BMP_temperature;BMP_pressure;BME280_temperature;BME280_humidity;BME280_pressure;Samples;Min_cycle;Max_cycle;Signal;HPM_P1;HPM_P2
2023/12/25 00:00:12;;;;;;;13.52;2.33;;;11.40;99.90;;;;;;5077627;28;20416;-82
2023/12/25 00:02:38;;;;;;;14.40;2.58;;;11.40;99.90;;;;;;5045317;28;20060;-82
2023/12/25 00:05:03;;;;;;;12.02;2.50;;;11.40;99.90;;;;;;5043301;28;20044;-82
2023/12/25 00:07:29;;;;;;;14.68;2.90;;;11.40;99.90;;;;;;5049107;28;20492;-83
2023/12/25 00:09:55;;;;;;;11.35;2.75;;;11.40;99.90;;;;;;5049406;28;20041;-82
2023/12/25 00:12:21;;;;;;;16.27;3.40;;;11.50;99.90;;;;;;5048649;28;20064;-83
2023/12/25 00:14:47;;;;;;;16.05;3.03;;;11.40;99.90;;;;;;5048226;28;20034;-83
2023/12/25 00:17:14;;;;;;;16.67;2.90;;;11.40;99.90;;;;;;5048894;28;20120;-83
2023/12/25 00:19:40;;;;;;;16.27;2.70;;;11.40;99.90;;;;;;5050351;28;20053;-82
2023/12/25 00:22:06;;;;;;;15.25;2.55;;;11.30;99.90;;;;;;5053385;28;20485;-82
2023/12/25 00:24:31;;;;;;;16.20;2.75;;;11.30;99.90;;;;;;5047079;28;20045;-82
2023/12/25 00:26:57;;;;;;;16.42;2.45;;;11.30;99.90;;;;;;5050356;28;20033;-83
2023/12/25 00:29:22;;;;;;;10.63;2.20;;;11.30;99.90;;;;;;5049041;28;20103;-82
2023/12/25 00:31:48;;;;;;;10.98;2.53;;;11.30;99.90;;;;;;5050293;28;20440;-82
2023/12/25 00:34:15;;;;;;;10.45;2.38;;;11.40;99.90;;;;;;5045567;28;20041;-82
2023/12/25 00:36:40;;;;;;;14.82;2.58;;;11.40;99.90;;;;;;5050267;28;20518;-82
2023/12/25 00:39:06;;;;;;;11.65;2.22;;;11.30;99.90;;;;;;5049716;28;20061;-82
2023/12/25 00:41:32;;;;;;;13.38;2.33;;;11.40;99.90;;;;;;5049867;28;20037;-82
2023/12/25 00:43:58;;;;;;;12.07;2.40;;;11.30;99.90;;;;;;5048231;28;20494;-82
2023/12/25 00:46:24;;;;;;;13.57;2.83;;;11.30;99.90;;;;;;5048873;28;20048;-82
2023/12/25 00:48:50;;;;;;;11.10;2.03;;;11.30;99.90;;;;;;5049283;28;20045;-82
2023/12/25 00:51:15;;;;;;;11.55;2.00;;;11.30;99.90;;;;;;5053593;28;20510;-81
2023/12/25 00:53:41;;;;;;;11.80;2.35;;;11.40;99.90;;;;;;5052975;28;20048;-82
2023/12/25 00:56:08;;;;;;;9.68;1.70;;;11.30;99.90;;;;;;5049238;28;20033;-81
2023/12/25 00:58:34;;;;;;;9.80;1.85;;;11.30;99.90;;;;;;5050135;28;20077;-81
2023/12/25 01:00:59;;;;;;;8.20;1.67;;;11.40;99.90;;;;;;5051419;28;20528;-81
2023/12/25 01:03:25;;;;;;;9.13;1.77;;;11.40;99.90;;;;;;5050978;28;20136;-82
2023/12/25 01:05:50;;;;;;;7.15;1.73;;;11.40;99.90;;;;;;5048608;28;20459;-81
2023/12/25 01:08:16;;;;;;;8.73;1.70;;;11.30;99.90;;;;;;5052499;28;20037;-82
2023/12/25 01:10:42;;;;;;;7.60;1.65;;;11.30;99.90;;;;;;5047991;28;20037;-82
2023/12/25 01:13:08;;;;;;;7.65;1.40;;;11.30;99.90;;;;;;5052114;28;20064;-82
2023/12/25 01:15:34;;;;;;;5.95;1.27;;;11.30;99.90;;;;;;5043868;28;20144;-82
2023/12/25 01:18:00;;;;;;;4.82;1.20;;;11.30;99.90;;;;;;5051825;28;20500;-82
2023/12/25 01:20:25;;;;;;;10.57;2.15;;;11.30;99.90;;;;;;5051064;28;20072;-82
2023/12/25 01:22:51;;;;;;;12.57;1.70;;;11.20;99.90;;;;;;5052696;28;20041;-81
2023/12/25 01:25:17;;;;;;;9.48;1.38;;;11.20;99.90;;;;;;5052904;28;20037;-81
2023/12/25 01:27:43;;;;;;;8.88;1.70;;;11.20;99.90;;;;;;5049205;28;20040;-82
2023/12/25 01:30:11;;;;;;;9.02;2.40;;;11.20;99.90;;;;;;5053525;28;20120;-81
2023/12/25 01:32:37;;;;;;;7.55;1.50;;;11.20;99.90;;;;;;5048042;28;20024;-82
2023/12/25 01:35:04;;;;;;;13.25;1.75;;;11.20;99.90;;;;;;5050166;28;20395;-82
2023/12/25 01:37:30;;;;;;;8.95;1.60;;;11.20;99.90;;;;;;5048094;28;20038;-82
2023/12/25 01:39:56;;;;;;;7.25;1.20;;;11.10;99.90;;;;;;5048944;28;20123;-81
2023/12/25 01:42:21;;;;;;;10.50;1.83;;;11.10;99.90;;;;;;5052949;28;20056;-80
2023/12/25 01:44:47;;;;;;;8.95;1.60;;;11.00;99.90;;;;;;5046924;28;20033;-83
2023/12/25 01:47:16;;;;;;;7.80;1.60;;;11.10;99.90;;;;;;5083239;28;20120;-81
2023/12/25 01:49:42;;;;;;;8.65;1.50;;;11.10;99.90;;;;;;5050928;28;20052;-81
2023/12/25 01:52:08;;;;;;;10.82;2.55;;;11.00;99.90;;;;;;5048120;28;20036;-81
2023/12/25 01:54:34;;;;;;;8.40;1.83;;;11.00;99.90;;;;;;5049173;28;20408;-81
2023/12/25 01:57:00;;;;;;;10.32;1.92;;;10.90;99.90;;;;;;5050208;28;20035;-82
2023/12/25 01:59:29;;;;;;;5.53;1.30;;;11.00;99.90;;;;;;5055450;28;20049;-80
2023/12/25 02:01:58;;;;;;;10.00;1.73;;;10.80;99.90;;;;;;5054303;28;20045;-81
2023/12/25 02:04:26;;;;;;;8.98;1.33;;;10.70;99.90;;;;;;5048160;28;20652;-82
2023/12/25 02:06:53;;;;;;;6.75;1.92;;;10.80;99.90;;;;;;5047504;28;20044;-81
2023/12/25 02:09:19;;;;;;;12.45;2.22;;;10.70;99.90;;;;;;5052848;28;20044;-81
2023/12/25 02:11:44;;;;;;;12.85;2.33;;;10.70;99.90;;;;;;5048244;28;20465;-82
2023/12/25 02:14:13;;;;;;;10.38;2.30;;;10.70;99.90;;;;;;5051395;28;20041;-81
2023/12/25 02:16:40;;;;;;;13.00;1.88;;;10.70;99.90;;;;;;5049271;28;20041;-81
2023/12/25 02:19:17;;;;;;;10.90;2.08;;;10.80;99.90;;;;;;5055090;28;20046;-81
2023/12/25 02:21:42;;;;;;;9.88;2.00;;;10.70;99.90;;;;;;5053678;28;20037;-81
2023/12/25 02:24:12;;;;;;;9.88;2.10;;;10.70;99.90;;;;;;5051502;28;20052;-80
2023/12/25 02:26:38;;;;;;;13.75;2.28;;;10.60;99.90;;;;;;5049609;28;20044;-82
2023/12/25 02:29:03;;;;;;;9.25;2.00;;;10.60;99.90;;;;;;5048430;28;20411;-81
2023/12/25 02:31:29;;;;;;;7.70;1.83;;;10.60;99.90;;;;;;5053254;28;20448;-80
2023/12/25 02:33:54;;;;;;;11.55;2.25;;;10.70;99.90;;;;;;5051180;28;20037;-80
2023/12/25 02:36:20;;;;;;;12.63;1.92;;;10.60;99.90;;;;;;5050524;28;20048;-80
2023/12/25 02:38:46;;;;;;;13.70;2.08;;;10.60;99.90;;;;;;5049869;28;20044;-80
2023/12/25 02:41:11;;;;;;;12.32;2.67;;;10.60;99.90;;;;;;5051157;28;20086;-80
2023/12/25 02:43:37;;;;;;;12.63;2.08;;;10.60;99.90;;;;;;5054203;28;20452;-80
2023/12/25 02:46:03;;;;;;;12.30;1.90;;;10.60;99.90;;;;;;5049566;28;20064;-79
2023/12/25 02:48:28;;;;;;;11.35;1.92;;;10.60;99.90;;;;;;5050419;28;20036;-80
2023/12/25 02:50:54;;;;;;;10.80;1.92;;;10.60;99.90;;;;;;5055585;28;20055;-81
2023/12/25 02:53:19;;;;;;;15.43;2.80;;;10.50;99.90;;;;;;5054103;28;20041;-81
2023/12/25 02:55:45;;;;;;;11.80;2.03;;;10.70;99.90;;;;;;5048965;28;20515;-80
2023/12/25 02:58:11;;;;;;;10.88;1.83;;;10.80;99.90;;;;;;5053838;28;20095;-80
2023/12/25 03:00:37;;;;;;;14.02;1.90;;;10.70;99.90;;;;;;5049176;28;20522;-81
2023/12/25 03:03:03;;;;;;;10.13;1.90;;;10.70;99.90;;;;;;5053575;28;20036;-80
2023/12/25 03:05:28;;;;;;;8.65;1.33;;;10.70;99.90;;;;;;5051553;28;20041;-80
2023/12/25 03:07:54;;;;;;;7.63;1.90;;;10.70;99.90;;;;;;5055219;28;20459;-81
2023/12/25 03:10:19;;;;;;;10.82;1.45;;;10.70;99.90;;;;;;5051333;28;20041;-81
2023/12/25 03:12:45;;;;;;;9.90;1.75;;;10.80;99.90;;;;;;5052258;28;20025;-82
2023/12/25 03:15:11;;;;;;;11.55;1.60;;;10.80;99.90;;;;;;5053899;28;20039;-82
2023/12/25 03:17:36;;;;;;;8.57;1.30;;;10.80;99.90;;;;;;5050700;28;20033;-82
2023/12/25 03:20:03;;;;;;;12.93;2.13;;;10.90;99.90;;;;;;5052099;28;20029;-81
2023/12/25 03:22:29;;;;;;;8.07;1.63;;;10.80;99.90;;;;;;5029892;28;20068;-81
2023/12/25 03:24:54;;;;;;;11.07;1.95;;;10.90;99.90;;;;;;5047396;28;20036;-82
2023/12/25 03:27:20;;;;;;;9.35;1.65;;;10.90;99.90;;;;;;5049751;28;20091;-81
2023/12/25 03:29:46;;;;;;;10.80;1.50;;;10.80;99.90;;;;;;5051397;28;20037;-81
2023/12/25 03:32:13;;;;;;;10.60;1.40;;;10.80;99.90;;;;;;5050296;28;20494;-81
2023/12/25 03:34:48;;;;;;;10.73;1.73;;;10.80;99.90;;;;;;5044740;28;20029;-80
2023/12/25 03:37:14;;;;;;;7.80;1.52;;;10.70;99.90;;;;;;5050780;28;20029;-80
2023/12/25 03:39:40;;;;;;;9.80;1.90;;;10.70;99.90;;;;;;5054480;28;20044;-80
2023/12/25 03:42:06;;;;;;;10.35;2.05;;;10.60;99.90;;;;;;5054298;28;20625;-80
2023/12/25 03:44:31;;;;;;;9.38;2.20;;;10.60;99.90;;;;;;5053808;28;20037;-81
2023/12/25 03:46:57;;;;;;;10.68;1.60;;;10.50;99.90;;;;;;5052828;28;20065;-80
2023/12/25 03:49:22;;;;;;;14.23;1.98;;;10.60;99.90;;;;;;5054477;28;20072;-81
2023/12/25 03:51:48;;;;;;;10.80;2.15;;;10.60;99.90;;;;;;5055946;28;20033;-80
2023/12/25 03:54:13;;;;;;;9.80;2.05;;;10.60;99.90;;;;;;5048689;28;20044;-80
2023/12/25 03:56:39;;;;;;;8.05;1.63;;;10.50;99.90;;;;;;5052308;28;20028;-81
2023/12/25 03:59:05;;;;;;;11.20;2.05;;;10.60;99.90;;;;;;5053027;28;20036;-80
2023/12/25 04:01:30;;;;;;;8.40;1.52;;;10.60;99.90;;;;;;5053615;28;20044;-81
2023/12/25 04:03:56;;;;;;;7.93;1.55;;;10.60;99.90;;;;;;5054913;28;20045;-80
2023/12/25 04:06:23;;;;;;;12.18;1.92;;;10.60;99.90;;;;;;5054992;28;20397;-81
2023/12/25 04:08:49;;;;;;;10.43;2.17;;;10.60;99.90;;;;;;5055085;28;20047;-81
2023/12/25 04:11:22;;;;;;;12.68;1.65;;;10.60;99.90;;;;;;5053274;28;20412;-81
2023/12/25 04:13:53;;;;;;;10.00;1.75;;;10.60;99.90;;;;;;5053985;28;20431;-80
2023/12/25 04:16:23;;;;;;;13.52;2.47;;;10.70;99.90;;;;;;5052700;28;20040;-81
2023/12/25 04:18:49;;;;;;;10.63;1.92;;;10.60;99.90;;;;;;5050605;28;20052;-81
2023/12/25 04:21:30;;;;;;;15.35;2.30;;;10.70;99.90;;;;;;5053328;28;20036;-81
2023/12/25 04:23:56;;;;;;;12.45;2.20;;;10.60;99.90;;;;;;5055366;28;20178;-81
2023/12/25 04:26:23;;;;;;;10.02;2.03;;;10.60;99.90;;;;;;5050771;28;20146;-81
2023/12/25 04:28:49;;;;;;;12.27;1.63;;;10.70;99.90;;;;;;5051298;28;20029;-81
2023/12/25 04:31:15;;;;;;;14.15;2.13;;;10.60;99.90;;;;;;5051945;28;20116;-81
2023/12/25 04:33:41;;;;;;;12.85;2.20;;;10.60;99.90;;;;;;5054245;28;20028;-81
2023/12/25 04:36:07;;;;;;;10.88;2.65;;;10.60;99.90;;;;;;5051216;28;20118;-81
2023/12/25 04:38:33;;;;;;;9.63;2.10;;;10.50;99.90;;;;;;5054713;28;20032;-80
2023/12/25 04:40:59;;;;;;;14.00;2.35;;;10.40;99.90;;;;;;5050400;28;20103;-82
2023/12/25 04:43:25;;;;;;;14.80;2.28;;;10.50;99.90;;;;;;5051831;28;20044;-82
2023/12/25 04:45:51;;;;;;;13.20;2.50;;;10.50;99.90;;;;;;5052483;28;20416;-82
2023/12/25 04:48:16;;;;;;;11.00;1.77;;;10.50;99.90;;;;;;5035120;28;20114;-81
2023/12/25 04:50:43;;;;;;;11.02;1.73;;;10.50;99.90;;;;;;5049044;28;20045;-81
2023/12/25 04:53:09;;;;;;;12.48;2.00;;;10.20;99.90;;;;;;5050942;28;20041;-82
2023/12/25 04:55:34;;;;;;;12.82;2.17;;;10.10;99.90;;;;;;5054018;28;20125;-81
2023/12/25 04:58:00;;;;;;;14.07;2.20;;;10.10;99.90;;;;;;5052257;28;20041;-81
2023/12/25 05:00:26;;;;;;;17.73;2.40;;;9.90;99.90;;;;;;5052537;28;20044;-82
2023/12/25 05:02:51;;;;;;;13.90;1.98;;;9.90;99.90;;;;;;5052619;28;20079;-82
2023/12/25 05:05:17;;;;;;;16.88;2.28;;;9.90;99.90;;;;;;5049113;28;20525;-82
2023/12/25 05:07:43;;;;;;;16.48;2.58;;;9.90;99.90;;;;;;5050210;28;20041;-82
2023/12/25 05:10:08;;;;;;;13.80;2.30;;;9.90;99.90;;;;;;5078474;28;20331;-82
2023/12/25 05:12:34;;;;;;;9.82;2.05;;;9.90;99.90;;;;;;5077508;28;20037;-82
2023/12/25 05:15:00;;;;;;;11.70;2.00;;;9.90;99.90;;;;;;5050814;28;20033;-82
2023/12/25 05:17:25;;;;;;;11.23;2.42;;;9.90;99.90;;;;;;5050908;28;20056;-81
2023/12/25 05:19:51;;;;;;;14.07;2.63;;;10.00;99.90;;;;;;5045832;28;20047;-82
2023/12/25 05:22:16;;;;;;;13.93;2.47;;;10.00;99.90;;;;;;5042175;28;20379;-81
2023/12/25 05:24:42;;;;;;;11.73;1.90;;;10.10;99.90;;;;;;5051623;28;20174;-81
2023/12/25 05:27:08;;;;;;;10.30;2.60;;;9.90;99.90;;;;;;5048706;28;20037;-81
2023/12/25 05:29:34;;;;;;;12.00;2.38;;;9.90;99.90;;;;;;5044281;28;20049;-82
2023/12/25 05:32:00;;;;;;;8.38;1.77;;;9.90;99.90;;;;;;5049241;28;20191;-81
2023/12/25 05:34:27;;;;;;;12.77;2.15;;;9.90;99.90;;;;;;5052370;28;20230;-81
2023/12/25 05:36:53;;;;;;;15.85;2.53;;;9.80;99.90;;;;;;5051393;28;20170;-80
2023/12/25 05:39:19;;;;;;;12.90;2.53;;;9.80;99.90;;;;;;5047156;28;20299;-81
2023/12/25 05:41:45;;;;;;;11.68;2.08;;;9.80;99.90;;;;;;5050642;28;20378;-81
2023/12/25 05:44:10;;;;;;;17.45;2.53;;;9.80;99.90;;;;;;5051215;28;20079;-81
2023/12/25 05:46:36;;;;;;;7.93;1.73;;;9.90;99.90;;;;;;5048485;28;20051;-81
2023/12/25 05:49:03;;;;;;;24.58;2.83;;;10.10;99.90;;;;;;5051845;28;20064;-81
2023/12/25 05:51:28;;;;;;;11.73;1.83;;;9.60;99.90;;;;;;5051077;28;20099;-80
2023/12/25 05:53:54;;;;;;;16.30;2.35;;;9.70;99.90;;;;;;5045884;28;20500;-81
2023/12/25 05:56:20;;;;;;;8.73;1.80;;;9.70;99.90;;;;;;5052490;28;20044;-81
2023/12/25 05:58:45;;;;;;;13.85;2.35;;;9.70;99.90;;;;;;5045496;28;20041;-81
2023/12/25 06:01:13;;;;;;;13.32;2.83;;;9.70;99.90;;;;;;5049718;28;20045;-82
2023/12/25 06:03:41;;;;;;;13.73;2.08;;;9.70;99.90;;;;;;5045768;28;20463;-81
2023/12/25 06:06:07;;;;;;;16.23;2.28;;;9.70;99.90;;;;;;5049738;28;20119;-81
2023/12/25 06:08:34;;;;;;;10.55;2.38;;;9.60;99.90;;;;;;5048494;28;20048;-81
2023/12/25 06:11:01;;;;;;;8.60;1.88;;;9.60;99.90;;;;;;5048717;28;20135;-80
2023/12/25 06:13:26;;;;;;;9.80;1.90;;;9.80;99.90;;;;;;5083952;28;20037;-81
2023/12/25 06:15:52;;;;;;;11.68;2.33;;;9.60;99.90;;;;;;5047840;28;20059;-81
2023/12/25 06:18:18;;;;;;;12.48;2.33;;;9.60;99.90;;;;;;5050032;28;20045;-81
2023/12/25 06:20:44;;;;;;;11.07;2.38;;;9.60;99.90;;;;;;5051294;28;20033;-81
2023/12/25 06:23:10;;;;;;;11.63;2.15;;;9.60;99.90;;;;;;5052019;28;20128;-81
2023/12/25 06:25:36;;;;;;;14.82;2.17;;;9.60;99.90;;;;;;5050396;28;20045;-80
2023/12/25 06:28:02;;;;;;;16.55;2.55;;;9.60;99.90;;;;;;5048953;28;20535;-80
2023/12/25 06:30:28;;;;;;;15.00;2.50;;;9.60;99.90;;;;;;5050265;28;20075;-81
2023/12/25 06:32:54;;;;;;;15.25;2.60;;;9.70;99.90;;;;;;5048387;28;20496;-81
2023/12/25 06:35:20;;;;;;;15.45;2.22;;;9.70;99.90;;;;;;5051743;28;20037;-80
2023/12/25 06:37:45;;;;;;;14.60;3.20;;;9.70;99.90;;;;;;5050093;28;20041;-81
2023/12/25 06:40:11;;;;;;;11.82;2.20;;;9.70;99.90;;;;;;5049570;28;20515;-80
2023/12/25 06:42:37;;;;;;;14.73;2.65;;;9.60;99.90;;;;;;5050473;28;20312;-80
2023/12/25 06:45:03;;;;;;;15.00;2.58;;;10.00;99.90;;;;;;5052682;28;20029;-81
2023/12/25 06:47:29;;;;;;;14.85;2.47;;;9.70;99.90;;;;;;5046213;28;20123;-81
2023/12/25 06:49:54;;;;;;;23.58;2.90;;;9.70;99.90;;;;;;5042877;28;20214;-81
2023/12/25 06:52:20;;;;;;;15.25;2.50;;;9.70;99.90;;;;;;5050762;28;20614;-81
2023/12/25 06:54:46;;;;;;;13.85;2.47;;;9.60;99.90;;;;;;5048460;28;20056;-81
2023/12/25 06:57:13;;;;;;;13.10;2.55;;;9.70;99.90;;;;;;5051932;28;20040;-81
2023/12/25 06:59:40;;;;;;;16.50;2.45;;;9.60;99.90;;;;;;5050757;28;20045;-81
2023/12/25 07:02:07;;;;;;;13.48;2.38;;;9.60;99.90;;;;;;5049966;28;20156;-81
2023/12/25 07:04:34;;;;;;;12.35;2.50;;;9.60;99.90;;;;;;5046993;28;20049;-81
2023/12/25 07:06:59;;;;;;;8.75;1.80;;;9.60;99.90;;;;;;5051975;28;20047;-81
2023/12/25 07:09:26;;;;;;;13.00;2.00;;;9.60;99.90;;;;;;5053681;28;20592;-80
2023/12/25 07:11:51;;;;;;;14.68;2.38;;;9.60;99.90;;;;;;5047087;28;20033;-80
2023/12/25 07:14:18;;;;;;;9.40;1.60;;;9.50;99.90;;;;;;5051119;28;20067;-81
2023/12/25 07:16:43;;;;;;;10.57;2.13;;;9.60;99.90;;;;;;5053561;28;20112;-81
2023/12/25 07:19:09;;;;;;;12.00;2.17;;;9.60;99.90;;;;;;5053643;28;20088;-81
2023/12/25 07:21:35;;;;;;;11.13;1.65;;;9.60;99.90;;;;;;5051709;28;20041;-80
2023/12/25 07:24:00;;;;;;;10.23;2.42;;;9.40;99.90;;;;;;5055325;28;20037;-81
2023/12/25 07:26:26;;;;;;;13.50;2.53;;;9.40;99.90;;;;;;5053658;28;20120;-81
2023/12/25 07:28:52;;;;;;;8.30;1.70;;;9.50;99.90;;;;;;5053076;28;20038;-81
2023/12/25 07:31:18;;;;;;;10.90;2.22;;;9.50;99.90;;;;;;5055905;28;20162;-82
2023/12/25 07:33:43;;;;;;;11.75;2.15;;;9.60;99.90;;;;;;5057179;28;21029;-82
2023/12/25 07:36:09;;;;;;;11.88;1.73;;;9.50;99.90;;;;;;5052025;28;20124;-80
2023/12/25 07:38:35;;;;;;;10.10;2.35;;;9.40;99.90;;;;;;5083160;28;20032;-81
2023/12/25 07:41:01;;;;;;;15.13;2.22;;;9.50;99.90;;;;;;5050855;28;20051;-81
2023/12/25 07:43:27;;;;;;;8.77;2.28;;;9.40;99.90;;;;;;5051733;28;20044;-82
2023/12/25 07:45:54;;;;;;;12.30;2.50;;;9.50;99.90;;;;;;5051103;28;20037;-80
2023/12/25 07:48:20;;;;;;;14.82;2.70;;;9.50;99.90;;;;;;5053203;28;20053;-80
2023/12/25 07:50:45;;;;;;;11.77;1.90;;;9.50;99.90;;;;;;5054454;28;20039;-81
2023/12/25 07:53:11;;;;;;;13.73;2.25;;;9.50;99.90;;;;;;5050573;28;20041;-79
2023/12/25 07:55:38;;;;;;;19.60;2.97;;;9.60;99.90;;;;;;5050778;28;20033;-83
2023/12/25 07:58:04;;;;;;;10.60;1.90;;;9.60;99.90;;;;;;5057276;28;20040;-81
2023/12/25 08:00:29;;;;;;;15.73;2.45;;;9.60;99.90;;;;;;5052464;28;20048;-82
2023/12/25 08:02:55;;;;;;;11.40;2.20;;;9.60;99.90;;;;;;5052854;28;20399;-81
2023/12/25 08:05:21;;;;;;;10.93;2.03;;;9.50;99.90;;;;;;5056000;28;20041;-81
2023/12/25 08:07:47;;;;;;;9.23;1.73;;;9.60;99.90;;;;;;5050718;28;20034;-81
2023/12/25 08:10:13;;;;;;;11.30;2.22;;;9.50;99.90;;;;;;5050022;28;20127;-81
2023/12/25 08:12:43;;;;;;;10.40;2.22;;;9.50;99.90;;;;;;5077926;28;20072;-81
2023/12/25 08:15:11;;;;;;;14.25;2.53;;;9.50;99.90;;;;;;5084615;28;20086;-81
2023/12/25 08:17:36;;;;;;;13.73;2.28;;;9.40;99.90;;;;;;5054839;28;20142;-81
2023/12/25 08:20:02;;;;;;;11.10;1.92;;;9.40;99.90;;;;;;5054936;28;20151;-80
2023/12/25 08:22:28;;;;;;;11.77;2.13;;;9.40;99.90;;;;;;5085943;28;20052;-81
2023/12/25 08:24:53;;;;;;;6.90;1.95;;;9.40;99.90;;;;;;5047258;28;20073;-80
2023/12/25 08:27:19;;;;;;;10.60;1.63;;;9.40;99.90;;;;;;5051793;28;20108;-82
2023/12/25 08:29:45;;;;;;;5.47;1.38;;;9.50;99.90;;;;;;5055338;28;20077;-81
2023/12/25 08:32:12;;;;;;;9.05;1.80;;;9.20;99.90;;;;;;5053597;28;20045;-80
2023/12/25 08:34:38;;;;;;;10.48;2.33;;;9.30;99.90;;;;;;5057040;28;20071;-81
2023/12/25 08:37:04;;;;;;;8.55;1.75;;;9.20;99.90;;;;;;5057295;28;20455;-81
2023/12/25 08:39:29;;;;;;;10.55;2.03;;;9.20;99.90;;;;;;5057994;28;20072;-81
2023/12/25 08:41:57;;;;;;;12.05;2.28;;;9.10;99.90;;;;;;5056941;28;20120;-80
2023/12/25 08:44:23;;;;;;;11.35;2.25;;;9.10;99.90;;;;;;5037683;28;20047;-80
2023/12/25 08:46:49;;;;;;;10.93;2.13;;;9.10;99.90;;;;;;5085795;28;20105;-80
2023/12/25 08:49:14;;;;;;;11.52;1.92;;;9.10;99.90;;;;;;5055402;28;20083;-80
2023/12/25 08:51:40;;;;;;;11.20;2.05;;;9.10;99.90;;;;;;5057866;28;20119;-80
2023/12/25 08:54:07;;;;;;;11.80;2.05;;;9.10;99.90;;;;;;5058230;28;20033;-81
2023/12/25 08:56:33;;;;;;;6.13;1.20;;;9.10;99.90;;;;;;5057697;28;20044;-81
2023/12/25 08:59:00;;;;;;;4.57;1.30;;;8.90;99.90;;;;;;5055889;28;20044;-80
2023/12/25 09:01:26;;;;;;;5.88;1.02;;;9.00;99.90;;;;;;5053006;28;20705;-80
2023/12/25 09:03:52;;;;;;;6.78;1.10;;;9.00;99.90;;;;;;5051029;28;20041;-80
2023/12/25 09:06:17;;;;;;;6.20;1.10;;;8.90;99.90;;;;;;5083941;28;20063;-80
2023/12/25 09:08:45;;;;;;;5.82;1.60;;;8.90;99.90;;;;;;5056733;28;20056;-80
2023/12/25 09:11:11;;;;;;;6.95;1.52;;;8.90;99.90;;;;;;5057666;28;20041;-80
2023/12/25 09:13:37;;;;;;;7.18;1.40;;;8.80;99.90;;;;;;5050035;28;20508;-80
2023/12/25 09:16:02;;;;;;;4.90;1.40;;;8.90;99.90;;;;;;5053474;28;20044;-80
2023/12/25 09:18:29;;;;;;;6.22;1.38;;;8.80;99.90;;;;;;5054600;28;20047;-80
2023/12/25 09:20:57;;;;;;;5.38;1.30;;;8.80;99.90;;;;;;5053872;28;20084;-80
2023/12/25 09:23:23;;;;;;;5.03;1.67;;;8.80;99.90;;;;;;5055265;28;20029;-81
2023/12/25 09:25:49;;;;;;;7.93;1.25;;;8.90;99.90;;;;;;5078769;28;20037;-81
2023/12/25 09:28:15;;;;;;;9.95;1.90;;;8.90;99.90;;;;;;5054777;28;20036;-80
2023/12/25 09:30:40;;;;;;;7.93;1.52;;;8.90;99.90;;;;;;5057938;28;20443;-82
2023/12/25 09:33:07;;;;;;;6.40;1.23;;;8.80;99.90;;;;;;5055595;28;20045;-81
2023/12/25 09:35:32;;;;;;;12.38;1.85;;;8.80;99.90;;;;;;5057519;28;20033;-82
2023/12/25 09:37:58;;;;;;;8.35;1.67;;;8.90;99.90;;;;;;5053877;28;20048;-82
2023/12/25 09:40:24;;;;;;;9.07;1.50;;;8.80;99.90;;;;;;5052442;28;20040;-82
2023/12/25 09:42:50;;;;;;;9.50;1.58;;;8.80;99.90;;;;;;5053699;28;20073;-81
2023/12/25 09:45:17;;;;;;;12.73;2.15;;;8.90;99.90;;;;;;5056527;28;20385;-82
2023/12/25 09:47:43;;;;;;;6.53;1.35;;;8.90;99.90;;;;;;5054276;28;20044;-81
2023/12/25 09:50:10;;;;;;;10.20;1.77;;;8.90;99.90;;;;;;5056711;28;20045;-82
2023/12/25 09:52:36;;;;;;;11.43;1.95;;;8.90;99.90;;;;;;5055668;28;20090;-81
2023/12/25 09:55:02;;;;;;;12.38;1.83;;;8.90;99.90;;;;;;5048517;28;20040;-81
2023/12/25 09:57:30;;;;;;;9.13;1.70;;;8.90;99.90;;;;;;5056344;28;20048;-82
2023/12/25 09:59:56;;;;;;;8.82;2.00;;;9.10;99.90;;;;;;5052812;28;20068;-80
2023/12/25 10:02:23;;;;;;;9.65;2.10;;;9.00;99.90;;;;;;5051968;28;20052;-81
2023/12/25 10:04:52;;;;;;;8.70;1.80;;;9.00;99.90;;;;;;5050920;28;20354;-81
2023/12/25 10:07:21;;;;;;;11.02;1.70;;;9.00;99.90;;;;;;5051209;28;20263;-82
2023/12/25 10:09:49;;;;;;;9.85;1.60;;;9.30;99.90;;;;;;5050467;28;20520;-81
2023/12/25 10:12:15;;;;;;;9.48;1.73;;;9.00;99.90;;;;;;5030380;28;20091;-82
2023/12/25 10:14:40;;;;;;;7.80;1.52;;;9.00;99.90;;;;;;5051004;28;20489;-81
2023/12/25 10:17:07;;;;;;;9.73;1.60;;;9.10;99.90;;;;;;5079746;28;20070;-80
2023/12/25 10:19:35;;;;;;;10.27;2.05;;;9.00;99.90;;;;;;5043430;28;20053;-80
2023/12/25 10:22:01;;;;;;;9.75;1.95;;;9.10;99.90;;;;;;5049927;28;20393;-81
2023/12/25 10:24:27;;;;;;;13.45;1.80;;;9.50;99.90;;;;;;5054501;28;20436;-82
2023/12/25 10:26:57;;;;;;;7.93;1.55;;;9.10;99.90;;;;;;5052713;28;20029;-82
2023/12/25 10:29:33;;;;;;;10.43;1.75;;;9.10;99.90;;;;;;5052923;28;20068;-81
2023/12/25 10:32:15;;;;;;;9.68;1.67;;;9.20;99.90;;;;;;5044254;28;20049;-81
2023/12/25 10:34:41;;;;;;;8.60;1.25;;;9.10;99.90;;;;;;5047756;28;20049;-82
2023/12/25 10:37:07;;;;;;;5.90;1.58;;;9.20;99.90;;;;;;5052974;28;20067;-81
2023/12/25 10:39:33;;;;;;;7.72;2.10;;;9.20;99.90;;;;;;5036295;28;20087;-82
2023/12/25 10:42:00;;;;;;;11.48;2.00;;;9.20;99.90;;;;;;5039687;28;20044;-82
2023/12/25 10:44:26;;;;;;;10.38;1.80;;;9.40;99.90;;;;;;5057805;28;20124;-81
2023/12/25 10:46:52;;;;;;;9.00;1.60;;;9.20;99.90;;;;;;5054137;28;20037;-82
2023/12/25 10:49:19;;;;;;;9.75;2.38;;;9.20;99.90;;;;;;5054400;28;20045;-82
2023/12/25 10:51:46;;;;;;;9.80;1.88;;;9.30;99.90;;;;;;5052982;28;20461;-82
2023/12/25 10:54:14;;;;;;;9.15;2.00;;;9.70;99.90;;;;;;5045350;28;20048;-81
2023/12/25 10:56:40;;;;;;;9.50;1.85;;;9.30;99.90;;;;;;5045710;28;20033;-81
2023/12/25 10:59:15;;;;;;;10.63;2.05;;;9.30;99.90;;;;;;5047430;28;20120;-81
2023/12/25 11:01:44;;;;;;;9.80;1.80;;;9.30;99.90;;;;;;5047282;28;20448;-82
2023/12/25 11:04:12;;;;;;;10.88;1.77;;;9.30;99.90;;;;;;5056626;28;20040;-82
2023/12/25 11:06:38;;;;;;;10.52;2.40;;;9.30;99.90;;;;;;5047381;28;20041;-82
2023/12/25 11:09:05;;;;;;;16.45;2.45;;;9.30;99.90;;;;;;5049192;28;20037;-81
2023/12/25 11:11:31;;;;;;;9.20;2.15;;;9.30;99.90;;;;;;5048463;28;20400;-82
2023/12/25 11:13:57;;;;;;;12.68;1.90;;;9.40;99.90;;;;;;5052754;28;20056;-82
2023/12/25 11:16:23;;;;;;;11.10;2.38;;;9.30;99.90;;;;;;5052895;28;20045;-81
2023/12/25 11:18:49;;;;;;;10.88;2.33;;;9.30;99.90;;;;;;5053730;28;20041;-81
2023/12/25 11:21:19;;;;;;;12.65;2.10;;;9.30;99.90;;;;;;5069718;28;20106;-81
2023/12/25 11:23:51;;;;;;;14.65;2.35;;;9.30;99.90;;;;;;5055314;28;20199;-82
2023/12/25 11:26:23;;;;;;;8.40;2.00;;;9.30;99.90;;;;;;5058913;28;20041;-82
2023/12/25 11:29:10;;;;;;;12.48;2.50;;;9.40;99.90;;;;;;5054831;28;20045;-82
2023/12/25 11:31:47;;;;;;;10.90;2.60;;;9.40;99.90;;;;;;5052070;28;20048;-81
2023/12/25 11:34:20;;;;;;;13.23;2.30;;;9.40;99.90;;;;;;5035216;28;20049;-81
2023/12/25 11:36:49;;;;;;;15.98;2.88;;;9.40;99.90;;;;;;5044614;28;20091;-82
2023/12/25 11:39:16;;;;;;;15.88;2.97;;;9.50;99.90;;;;;;5049331;28;20055;-81
2023/12/25 11:41:44;;;;;;;16.60;2.92;;;9.40;99.90;;;;;;5046365;28;20062;-81
2023/12/25 11:44:18;;;;;;;14.27;2.90;;;9.50;99.90;;;;;;5070631;28;20052;-82
2023/12/25 11:46:46;;;;;;;12.23;2.65;;;9.50;99.90;;;;;;5055712;28;20048;-81
2023/12/25 11:49:13;;;;;;;15.93;3.08;;;9.60;99.90;;;;;;5056036;28;20515;-80
2023/12/25 11:51:48;;;;;;;13.55;2.17;;;9.50;99.90;;;;;;5050282;28;20120;-83
2023/12/25 11:54:14;;;;;;;17.48;3.45;;;9.60;99.90;;;;;;5055293;28;20045;-84
2023/12/25 11:56:39;;;;;;;14.50;2.85;;;9.60;99.90;;;;;;5041163;28;20076;-81
2023/12/25 11:59:05;;;;;;;21.63;3.33;;;9.60;99.90;;;;;;5038713;28;20041;-82
2023/12/25 12:01:31;;;;;;;10.55;2.35;;;9.50;99.90;;;;;;5035330;28;20449;-82
2023/12/25 12:03:57;;;;;;;19.15;2.90;;;9.50;99.90;;;;;;5050748;28;20044;-81
2023/12/25 12:06:23;;;;;;;16.58;3.60;;;9.40;99.90;;;;;;5053230;28;20033;-82
2023/12/25 12:08:48;;;;;;;13.90;2.83;;;9.40;99.90;;;;;;5051816;28;20044;-81
2023/12/25 12:11:15;;;;;;;13.82;3.35;;;9.50;99.90;;;;;;5052467;28;20036;-81
2023/12/25 12:13:42;;;;;;;13.25;2.97;;;9.40;99.90;;;;;;5047615;28;20041;-81
2023/12/25 12:16:08;;;;;;;15.20;2.80;;;9.40;99.90;;;;;;5048575;28;20558;-84
2023/12/25 12:18:34;;;;;;;18.45;2.72;;;9.40;99.90;;;;;;5053860;28;20045;-81
2023/12/25 12:21:00;;;;;;;12.65;2.28;;;9.40;99.90;;;;;;5050496;28;20040;-82
2023/12/25 12:23:32;;;;;;;11.07;2.55;;;9.50;99.90;;;;;;5051600;28;20033;-81
2023/12/25 12:26:01;;;;;;;14.65;2.60;;;9.40;99.90;;;;;;5053516;28;20045;-81
2023/12/25 12:28:27;;;;;;;12.85;2.42;;;9.40;99.90;;;;;;5052515;28;20154;-81
2023/12/25 12:30:53;;;;;;;15.60;3.10;;;9.40;99.90;;;;;;5054074;28;20033;-82
2023/12/25 12:33:18;;;;;;;18.02;2.95;;;9.40;99.90;;;;;;5052430;28;20092;-82
2023/12/25 12:35:50;;;;;;;12.50;2.63;;;9.40;99.90;;;;;;5051848;28;20453;-83
2023/12/25 12:38:16;;;;;;;13.27;2.75;;;9.40;99.90;;;;;;5051794;28;20045;-82
2023/12/25 12:40:42;;;;;;;12.40;3.13;;;9.30;99.90;;;;;;5053242;28;20075;-83